Time;durP1;ratioP1;P1;durP2;ratioP2;P2;SDS_P1;SDS_P2;PMS_P1;PMS_P2;Temp;Humidity;BMP_temperature;BMP_pressure;BME280_temperature;BME280_humidity;BME280_pressure;Samples;Min_cycle;Max_cycle;Signal;HPM_P1;HPM_P2
2022/05/15 00:02:45;;;;;;;;;3.00;3.00;;;;;;;;5187698;28;8889;-71
2022/05/15 00:05:16;;;;;;;;;1.40;1.40;;;;;;;;5154073;28;8815;-71
2022/05/15 00:07:48;;;;;;;;;4.40;4.40;;;;;;;;5153911;28;8889;-71
2022/05/15 00:10:38;;;;;;;;;2.80;2.80;;;;;;;;5187692;28;8914;-71
2022/05/15 00:13:10;;;;;;;;;2.80;2.80;;;;;;;;5188588;28;8818;-71
2022/05/15 00:15:42;;;;;;;;;4.00;4.00;;;;;;;;5169763;28;9510;-70
2022/05/15 00:18:32;;;;;;;;;4.00;4.00;;;;;;;;5169751;28;8787;-70
2022/05/15 00:21:03;;;;;;;;;3.60;3.60;;;;;;;;5153831;28;8775;-70
2022/05/15 00:23:34;;;;;;;;;4.00;4.00;;;;;;;;5169784;28;8784;-70
2022/05/15 00:26:05;;;;;;;;;3.60;3.60;;;;;;;;5170608;28;8811;-70
2022/05/15 00:28:36;;;;;;;;;5.20;5.20;;;;;;;;5185958;28;8771;-70
2022/05/15 00:31:08;;;;;;;;;6.40;6.40;;;;;;;;5169216;28;8803;-70
2022/05/15 00:33:42;;;;;;;;;8.60;8.60;;;;;;;;5160364;28;8906;-70
2022/05/15 00:36:13;;;;;;;;;18.40;16.00;;;;;;;;5169360;28;9518;-70
2022/05/15 00:38:44;;;;;;;;;19.60;19.40;;;;;;;;5153466;28;8779;-69
2022/05/15 00:41:16;;;;;;;;;22.80;22.80;;;;;;;;5169291;28;8783;-69
2022/05/15 00:43:50;;;;;;;;;21.80;20.20;;;;;;;;5169224;28;8941;-69
2022/05/15 00:46:26;;;;;;;;;21.80;21.80;;;;;;;;5169090;28;9649;-68
2022/05/15 00:48:59;;;;;;;;;18.20;18.00;;;;;;;;5136949;28;8812;-69
2022/05/15 00:51:36;;;;;;;;;16.60;16.00;;;;;;;;5169201;28;8813;-71
2022/05/15 00:54:21;;;;;;;;;17.80;17.60;;;;;;;;5188969;28;8960;-71
2022/05/15 00:57:03;;;;;;;;;14.00;14.00;;;;;;;;5174095;28;8942;-69
2022/05/15 00:59:41;;;;;;;;;12.40;12.20;;;;;;;;5189338;28;8805;-69
2022/05/15 01:02:13;;;;;;;;;12.00;12.00;;;;;;;;5172582;28;8914;-69
2022/05/15 01:04:46;;;;;;;;;11.40;11.40;;;;;;;;5189138;28;8777;-68
2022/05/15 01:07:17;;;;;;;;;12.00;11.20;;;;;;;;5168556;28;8803;-68
2022/05/15 01:09:50;;;;;;;;;8.80;8.80;;;;;;;;5168756;28;8815;-68
2022/05/15 01:12:22;;;;;;;;;11.20;11.20;;;;;;;;5146974;28;8800;-68
2022/05/15 01:14:53;;;;;;;;;4.80;4.80;;;;;;;;5143961;28;9543;-70
2022/05/15 01:17:43;;;;;;;;;8.40;8.40;;;;;;;;5188513;28;8794;-70
2022/05/15 01:20:17;;;;;;;;;5.80;5.80;;;;;;;;5185010;28;8783;-71
2022/05/15 01:22:48;;;;;;;;;9.80;9.80;;;;;;;;5184832;28;8842;-72
2022/05/15 01:25:38;;;;;;;;;8.60;8.60;;;;;;;;5168548;28;8795;-72
2022/05/15 01:28:13;;;;;;;;;9.20;9.20;;;;;;;;5184863;28;8791;-72
2022/05/15 01:30:47;;;;;;;;;9.00;9.00;;;;;;;;5187377;28;8797;-72
2022/05/15 01:33:18;;;;;;;;;8.60;8.20;;;;;;;;5172504;28;8797;-68
2022/05/15 01:35:51;;;;;;;;;10.60;10.60;;;;;;;;5172415;28;8777;-69
2022/05/15 01:38:23;;;;;;;;;8.80;8.80;;;;;;;;5172536;28;9515;-69
2022/05/15 01:40:54;;;;;;;;;7.20;7.20;;;;;;;;5188622;28;9621;-69
2022/05/15 01:43:26;;;;;;;;;7.00;7.00;;;;;;;;5172378;28;8887;-69
2022/05/15 01:45:58;;;;;;;;;6.40;6.40;;;;;;;;5188171;28;8847;-70
2022/05/15 01:48:30;;;;;;;;;8.00;8.00;;;;;;;;5188358;28;8870;-70
2022/05/15 01:51:02;;;;;;;;;6.00;6.00;;;;;;;;5181698;28;8862;-69
2022/05/15 01:53:34;;;;;;;;;9.00;9.00;;;;;;;;5184188;28;8893;-70
2022/05/15 01:56:23;;;;;;;;;6.00;6.00;;;;;;;;5193069;28;8867;-70
2022/05/15 01:58:57;;;;;;;;;6.50;6.50;;;;;;;;5188040;28;8871;-70
2022/05/15 02:01:28;;;;;;;;;6.60;6.60;;;;;;;;5171870;28;8874;-69
2022/05/15 02:04:00;;;;;;;;;8.40;8.40;;;;;;;;5172181;28;8798;-70
2022/05/15 02:06:31;;;;;;;;;8.50;8.50;;;;;;;;5187941;28;9516;-69
2022/05/15 02:09:04;;;;;;;;;9.50;9.50;;;;;;;;5167525;28;8828;-70
2022/05/15 02:11:37;;;;;;;;;7.25;7.25;;;;;;;;5174600;28;8791;-70
2022/05/15 02:14:08;;;;;;;;;9.25;9.00;;;;;;;;5183802;28;8811;-70
2022/05/15 02:16:41;;;;;;;;;9.50;9.50;;;;;;;;5135598;28;8857;-70
2022/05/15 02:19:14;;;;;;;;;7.75;7.75;;;;;;;;5151841;28;8817;-70
2022/05/15 02:21:47;;;;;;;;;9.60;9.60;;;;;;;;5151212;28;8803;-70
2022/05/15 02:24:36;;;;;;;;;10.00;9.80;;;;;;;;5154008;28;8926;-69
2022/05/15 02:27:26;;;;;;;;;7.60;7.60;;;;;;;;5175556;28;8807;-70
2022/05/15 02:29:58;;;;;;;;;6.80;6.80;;;;;;;;5166598;28;8796;-69
2022/05/15 02:32:29;;;;;;;;;4.60;4.60;;;;;;;;5166850;28;8912;-70
2022/05/15 02:35:00;;;;;;;;;5.60;5.60;;;;;;;;5171013;28;8786;-69
2022/05/15 02:37:31;;;;;;;;;4.50;4.50;;;;;;;;5171275;28;8800;-70
2022/05/15 02:40:03;;;;;;;;;4.25;4.25;;;;;;;;5171353;28;9552;-69
2022/05/15 02:42:34;;;;;;;;;5.75;5.75;;;;;;;;5187545;28;8801;-69
2022/05/15 02:45:06;;;;;;;;;4.80;4.80;;;;;;;;5166897;28;9549;-68
2022/05/15 02:47:38;;;;;;;;;4.00;4.00;;;;;;;;5167278;28;8780;-70
2022/05/15 02:53:00;;;;;;;;;1.00;1.00;;;;;;;;5203703;28;9485;-70
2022/05/15 02:55:31;;;;;;;;;1.00;1.00;;;;;;;;5183231;28;8812;-70
2022/05/15 02:58:02;;;;;;;;;1.00;1.00;;;;;;;;5167926;28;8805;-71
2022/05/15 03:00:34;;;;;;;;;3.00;3.00;;;;;;;;5169450;28;9551;-70
2022/05/15 03:03:05;;;;;;;;;2.00;2.00;;;;;;;;5185838;28;8865;-70
2022/05/15 03:05:37;;;;;;;;;2.00;2.00;;;;;;;;5154861;28;9062;-70
2022/05/15 03:08:08;;;;;;;;;2.00;2.00;;;;;;;;5151170;28;8814;-70
2022/05/15 03:10:39;;;;;;;;;2.00;2.00;;;;;;;;5183240;28;8803;-70
2022/05/15 03:13:10;;;;;;;;;2.00;2.00;;;;;;;;5176673;28;11599;-70
2022/05/15 03:15:41;;;;;;;;;6.20;6.20;;;;;;;;5187062;28;8931;-70
2022/05/15 03:18:12;;;;;;;;;1.75;1.75;;;;;;;;5170975;28;8778;-70
2022/05/15 03:20:43;;;;;;;;;2.00;2.00;;;;;;;;5187041;28;8769;-70
2022/05/15 03:23:14;;;;;;;;;0.33;0.33;;;;;;;;5187666;28;8797;-69
2022/05/15 03:25:45;;;;;;;;;2.75;2.75;;;;;;;;5189085;28;9407;-73
2022/05/15 03:28:17;;;;;;;;;2.00;2.00;;;;;;;;5171645;28;8876;-70
2022/05/15 03:30:48;;;;;;;;;1.75;1.75;;;;;;;;5170603;28;8813;-71
2022/05/15 03:33:19;;;;;;;;;0.33;0.33;;;;;;;;5203860;28;8819;-70
2022/05/15 03:36:11;;;;;;;;;1.75;1.75;;;;;;;;5188374;28;9546;-70
2022/05/15 03:38:45;;;;;;;;;5.50;5.50;;;;;;;;5170507;28;8775;-70
2022/05/15 03:41:17;;;;;;;;;2.75;2.75;;;;;;;;5181930;28;8787;-71
2022/05/15 03:43:48;;;;;;;;;2.50;2.50;;;;;;;;5170613;28;8818;-71
2022/05/15 03:46:19;;;;;;;;;1.50;1.50;;;;;;;;5154520;28;8781;-71
2022/05/15 03:48:50;;;;;;;;;2.50;2.50;;;;;;;;5170252;28;8785;-72
2022/05/15 03:51:22;;;;;;;;;3.00;3.00;;;;;;;;5154243;28;9507;-71
2022/05/15 03:53:53;;;;;;;;;2.50;2.50;;;;;;;;5154026;28;8805;-70
2022/05/15 03:59:14;;;;;;;;;1.25;1.25;;;;;;;;5187743;28;8815;-71
2022/05/15 04:01:45;;;;;;;;;0.50;0.50;;;;;;;;5177840;28;8819;-71
2022/05/15 04:04:17;;;;;;;;;1.00;1.00;;;;;;;;5170132;28;8833;-71
2022/05/15 04:06:48;;;;;;;;;1.50;1.50;;;;;;;;5189846;28;8827;-71
2022/05/15 04:09:40;;;;;;;;;1.00;1.00;;;;;;;;5190516;28;8808;-74
2022/05/15 04:12:12;;;;;;;;;1.00;1.00;;;;;;;;5188525;28;8817;-73
2022/05/15 04:14:44;;;;;;;;;2.00;2.00;;;;;;;;5167832;28;8783;-72
2022/05/15 04:17:15;;;;;;;;;1.00;1.00;;;;;;;;5183689;28;8856;-69
2022/05/15 04:19:49;;;;;;;;;1.00;1.00;;;;;;;;5183470;28;8809;-69
2022/05/15 04:22:21;;;;;;;;;0.00;0.00;;;;;;;;5153471;28;8803;-68
2022/05/15 04:24:52;;;;;;;;;1.00;1.00;;;;;;;;5176388;28;9617;-70
2022/05/15 04:27:24;;;;;;;;;1.00;1.00;;;;;;;;5172213;28;8854;-70
2022/05/15 04:29:55;;;;;;;;;1.25;1.25;;;;;;;;5172085;28;8773;-70
2022/05/15 04:32:27;;;;;;;;;0.00;0.00;;;;;;;;5171603;28;8836;-70
2022/05/15 04:34:59;;;;;;;;;0.00;0.00;;;;;;;;5170735;28;8833;-71
2022/05/15 04:37:30;;;;;;;;;1.00;1.00;;;;;;;;5171497;28;8819;-70
2022/05/15 04:40:01;;;;;;;;;0.25;0.25;;;;;;;;5187107;28;8770;-70
2022/05/15 04:42:34;;;;;;;;;1.50;1.50;;;;;;;;5155588;28;9532;-70
2022/05/15 04:45:05;;;;;;;;;6.25;6.25;;;;;;;;5167324;28;8828;-69
2022/05/15 04:47:36;;;;;;;;;4.50;4.50;;;;;;;;5166192;28;8811;-70
2022/05/15 04:50:08;;;;;;;;;8.25;7.75;;;;;;;;5167215;28;8808;-69
2022/05/15 04:52:39;;;;;;;;;5.50;5.50;;;;;;;;5184657;28;8925;-70
2022/05/15 04:55:11;;;;;;;;;2.00;2.00;;;;;;;;5167240;28;8827;-70
2022/05/15 04:58:01;;;;;;;;;4.00;3.75;;;;;;;;5167014;28;8819;-70
2022/05/15 05:00:32;;;;;;;;;2.00;2.00;;;;;;;;5187076;28;8827;-69
2022/05/15 05:03:03;;;;;;;;;0.50;0.50;;;;;;;;5187465;28;8844;-71
2022/05/15 05:05:34;;;;;;;;;1.00;1.00;;;;;;;;5186439;28;9613;-70
2022/05/15 05:08:07;;;;;;;;;4.75;4.75;;;;;;;;5205035;28;8786;-70
2022/05/15 05:10:39;;;;;;;;;4.25;4.25;;;;;;;;5170898;28;8769;-70
2022/05/15 05:13:28;;;;;;;;;3.25;3.25;;;;;;;;5157772;28;8803;-71
2022/05/15 05:15:59;;;;;;;;;1.50;1.50;;;;;;;;5169198;28;8813;-69
2022/05/15 05:18:30;;;;;;;;;1.00;1.00;;;;;;;;5163570;28;8811;-70
2022/05/15 05:21:01;;;;;;;;;1.25;1.25;;;;;;;;5196944;28;8812;-68
2022/05/15 05:23:32;;;;;;;;;8.75;8.75;;;;;;;;5200745;28;8847;-68
2022/05/15 05:26:03;;;;;;;;;3.50;3.50;;;;;;;;5170478;28;8797;-68
2022/05/15 05:28:35;;;;;;;;;1.00;1.00;;;;;;;;5203058;28;8797;-68
2022/05/15 05:31:06;;;;;;;;;1.00;1.00;;;;;;;;5169869;28;8789;-68
2022/05/15 05:33:37;;;;;;;;;1.00;1.00;;;;;;;;5170958;28;8805;-68
2022/05/15 05:36:26;;;;;;;;;1.50;1.50;;;;;;;;5185832;28;8825;-68
2022/05/15 05:38:58;;;;;;;;;1.00;1.00;;;;;;;;5170545;28;8804;-68
2022/05/15 05:41:29;;;;;;;;;1.75;1.75;;;;;;;;5186651;28;8817;-69
2022/05/15 05:44:00;;;;;;;;;0.50;0.50;;;;;;;;5185990;28;8943;-69
2022/05/15 05:46:31;;;;;;;;;0.00;0.00;;;;;;;;5186342;28;9630;-70
2022/05/15 05:49:02;;;;;;;;;4.00;4.00;;;;;;;;5204023;28;9556;-70
2022/05/15 05:51:33;;;;;;;;;6.00;4.75;;;;;;;;5196525;28;9489;-68
2022/05/15 05:54:04;;;;;;;;;2.50;2.50;;;;;;;;5185630;28;9556;-69
2022/05/15 05:56:35;;;;;;;;;3.00;3.00;;;;;;;;5187432;28;8989;-68
2022/05/15 05:59:06;;;;;;;;;0.00;0.00;;;;;;;;5172558;28;8777;-68
2022/05/15 06:01:37;;;;;;;;;0.67;0.67;;;;;;;;5157623;28;8812;-69
2022/05/15 06:06:58;;;;;;;;;1.00;1.00;;;;;;;;5185346;28;8868;-68
2022/05/15 06:09:29;;;;;;;;;1.00;1.00;;;;;;;;5181468;28;9548;-68
2022/05/15 06:12:00;;;;;;;;;2.50;1.75;;;;;;;;5191827;28;8822;-68
2022/05/15 06:14:31;;;;;;;;;1.67;1.67;;;;;;;;5177576;28;8882;-67
2022/05/15 06:17:02;;;;;;;;;1.00;1.00;;;;;;;;5144237;28;8939;-69
2022/05/15 06:19:34;;;;;;;;;2.00;2.00;;;;;;;;5169497;28;8835;-69
2022/05/15 06:22:05;;;;;;;;;1.00;1.00;;;;;;;;5205132;28;8789;-69
2022/05/15 06:24:36;;;;;;;;;0.00;0.00;;;;;;;;5187666;28;8777;-68
2022/05/15 06:27:07;;;;;;;;;1.75;1.50;;;;;;;;5170691;28;8828;-68
2022/05/15 06:29:58;;;;;;;;;1.25;1.25;;;;;;;;5193976;28;8800;-69
2022/05/15 06:32:29;;;;;;;;;1.00;1.00;;;;;;;;5170936;28;9676;-69
2022/05/15 06:35:00;;;;;;;;;7.25;7.25;;;;;;;;5187367;28;8790;-70
2022/05/15 06:37:31;;;;;;;;;2.00;2.00;;;;;;;;5171133;28;8809;-69
2022/05/15 06:40:03;;;;;;;;;1.00;1.00;;;;;;;;5185187;28;8813;-68
2022/05/15 06:42:34;;;;;;;;;2.00;2.00;;;;;;;;5181088;28;8808;-69
2022/05/15 06:45:10;;;;;;;;;0.00;0.00;;;;;;;;5171668;28;8781;-68
2022/05/15 06:47:42;;;;;;;;;3.00;3.00;;;;;;;;5184423;28;9589;-68
2022/05/15 06:50:13;;;;;;;;;1.00;1.00;;;;;;;;5181924;28;9328;-69
2022/05/15 06:52:44;;;;;;;;;0.75;0.75;;;;;;;;5165694;28;8883;-69
2022/05/15 06:55:16;;;;;;;;;0.75;0.75;;;;;;;;5165432;28;8854;-70
2022/05/15 06:57:50;;;;;;;;;0.00;0.00;;;;;;;;5164601;28;8789;-69
2022/05/15 07:00:22;;;;;;;;;1.00;1.00;;;;;;;;5149072;28;8796;-69
2022/05/15 07:02:53;;;;;;;;;0.00;0.00;;;;;;;;5165780;28;9842;-69
2022/05/15 07:05:44;;;;;;;;;1.00;1.00;;;;;;;;5152218;28;8812;-69
2022/05/15 07:08:16;;;;;;;;;10.00;10.00;;;;;;;;5165686;28;9638;-69
2022/05/15 07:10:47;;;;;;;;;5.00;5.00;;;;;;;;5155335;28;8818;-69
2022/05/15 07:13:18;;;;;;;;;1.00;1.00;;;;;;;;5171620;28;8835;-69
2022/05/15 07:15:49;;;;;;;;;0.00;0.00;;;;;;;;5165884;28;8817;-69
2022/05/15 07:18:23;;;;;;;;;0.50;0.50;;;;;;;;5182559;28;9664;-70
2022/05/15 07:20:54;;;;;;;;;3.50;3.50;;;;;;;;5182554;28;8970;-69
2022/05/15 07:23:26;;;;;;;;;1.00;1.00;;;;;;;;5192579;28;8808;-69
2022/05/15 07:25:57;;;;;;;;;4.50;4.50;;;;;;;;5223143;28;8803;-70
2022/05/15 07:28:28;;;;;;;;;2.00;2.00;;;;;;;;5187462;28;8825;-69
2022/05/15 07:30:59;;;;;;;;;1.50;1.50;;;;;;;;5167289;28;8814;-69
2022/05/15 07:33:32;;;;;;;;;2.75;2.75;;;;;;;;5168561;28;8844;-69
2022/05/15 07:36:04;;;;;;;;;1.00;1.00;;;;;;;;5180271;28;8816;-70
2022/05/15 07:38:35;;;;;;;;;3.25;3.25;;;;;;;;5187279;28;8811;-68
2022/05/15 07:41:05;;;;;;;;;1.67;1.00;;;;;;;;5178603;28;8787;-69
2022/05/15 07:43:55;;;;;;;;;1.50;1.50;;;;;;;;5187646;28;8833;-68
2022/05/15 07:46:44;;;;;;;;;3.00;3.00;;;;;;;;5202955;28;8851;-69
2022/05/15 07:49:16;;;;;;;;;4.75;4.75;;;;;;;;5186013;28;8781;-69
2022/05/15 07:51:47;;;;;;;;;0.75;0.75;;;;;;;;5204204;28;9656;-70
2022/05/15 07:54:18;;;;;;;;;1.50;1.50;;;;;;;;5186355;28;8932;-69
2022/05/15 07:56:49;;;;;;;;;4.50;4.50;;;;;;;;5150766;28;8829;-68
2022/05/15 07:59:20;;;;;;;;;6.00;6.00;;;;;;;;5164686;28;8870;-69
2022/05/15 08:01:54;;;;;;;;;1.00;1.00;;;;;;;;5167313;28;8817;-69
2022/05/15 08:04:26;;;;;;;;;1.50;1.50;;;;;;;;5204348;28;8833;-68
2022/05/15 08:09:46;;;;;;;;;2.00;2.00;;;;;;;;5165978;28;8810;-69
2022/05/15 08:12:17;;;;;;;;;10.33;9.33;;;;;;;;5172021;28;8830;-70
2022/05/15 08:14:48;;;;;;;;;3.00;3.00;;;;;;;;5198446;28;8802;-69
2022/05/15 08:17:19;;;;;;;;;2.67;2.67;;;;;;;;5207518;28;8844;-69
2022/05/15 08:23:44;;;;;;;;;4.00;4.00;;;;;;;;5202340;28;8830;-70
2022/05/15 08:25:49;;;;;;;;;2.50;2.50;;;;;;;;5178338;28;8830;-68
2022/05/15 08:28:20;;;;;;;;;5.75;5.75;;;;;;;;5227244;28;8851;-69
2022/05/15 08:30:50;;;;;;;;;13.00;13.00;;;;;;;;5189677;28;8796;-69
2022/05/15 08:33:40;;;;;;;;;9.75;9.75;;;;;;;;5207491;28;8828;-69
2022/05/15 08:36:10;;;;;;;;;1.00;1.00;;;;;;;;5173561;28;8951;-69
2022/05/15 08:38:43;;;;;;;;;1.33;1.33;;;;;;;;5189112;28;11487;-68
2022/05/15 08:41:17;;;;;;;;;6.00;6.00;;;;;;;;5200483;28;8945;-69
2022/05/15 08:43:51;;;;;;;;;5.75;5.75;;;;;;;;5177545;28;8916;-69
2022/05/15 08:46:49;;;;;;;;;2.00;2.00;;;;;;;;5227781;28;9510;-69
2022/05/15 08:49:24;;;;;;;;;2.00;2.00;;;;;;;;5193726;28;9510;-69
2022/05/15 08:51:55;;;;;;;;;1.00;1.00;;;;;;;;5177010;28;8783;-69
2022/05/15 08:54:26;;;;;;;;;2.00;2.00;;;;;;;;5227403;28;8798;-69
2022/05/15 08:56:58;;;;;;;;;2.50;2.50;;;;;;;;5193202;28;11437;-70
2022/05/15 08:59:38;;;;;;;;;2.50;2.50;;;;;;;;5223701;28;8881;-70
2022/05/15 09:02:10;;;;;;;;;4.25;4.25;;;;;;;;5159356;28;8814;-69
2022/05/15 09:05:00;;;;;;;;;14.00;14.00;;;;;;;;5171756;28;8843;-69
2022/05/15 09:07:40;;;;;;;;;5.25;5.25;;;;;;;;5184176;28;8835;-69
2022/05/15 09:10:18;;;;;;;;;4.00;4.00;;;;;;;;5172420;28;8896;-69
2022/05/15 09:12:56;;;;;;;;;4.00;4.00;;;;;;;;5168252;28;9616;-69
2022/05/15 09:15:30;;;;;;;;;5.00;5.00;;;;;;;;5141409;28;8805;-68
2022/05/15 09:18:03;;;;;;;;;2.50;2.50;;;;;;;;5152321;28;8799;-69
2022/05/15 09:20:52;;;;;;;;;1.75;1.75;;;;;;;;5161768;28;8811;-69
2022/05/15 09:23:26;;;;;;;;;2.50;2.50;;;;;;;;5148147;28;8893;-69
2022/05/15 09:25:58;;;;;;;;;2.00;2.00;;;;;;;;5183660;28;8817;-69
2022/05/15 09:28:29;;;;;;;;;3.50;3.50;;;;;;;;5188585;28;8800;-68
2022/05/15 09:31:04;;;;;;;;;2.50;2.50;;;;;;;;5171780;28;8950;-69
2022/05/15 09:33:56;;;;;;;;;0.00;0.00;;;;;;;;5172576;28;8863;-69
2022/05/15 09:36:29;;;;;;;;;2.25;2.25;;;;;;;;5188660;28;8882;-68
2022/05/15 09:39:18;;;;;;;;;4.00;4.00;;;;;;;;5183429;28;8840;-69
2022/05/15 09:44:50;;;;;;;;;2.00;2.00;;;;;;;;5167961;28;8892;-70
2022/05/15 09:47:28;;;;;;;;;1.00;1.00;;;;;;;;5161938;28;8813;-71
2022/05/15 09:50:00;;;;;;;;;2.50;2.50;;;;;;;;5172386;28;8869;-71
2022/05/15 09:52:49;;;;;;;;;1.00;1.00;;;;;;;;5174494;28;8801;-71
2022/05/15 09:55:20;;;;;;;;;1.00;1.00;;;;;;;;5171740;28;8839;-70
2022/05/15 09:57:56;;;;;;;;;0.67;0.67;;;;;;;;5187848;28;8765;-71
2022/05/15 10:00:45;;;;;;;;;0.00;0.00;;;;;;;;5205818;28;10909;-69
2022/05/15 10:03:21;;;;;;;;;0.75;0.75;;;;;;;;5155603;28;8829;-68
2022/05/15 10:06:03;;;;;;;;;1.00;1.00;;;;;;;;5155611;28;8765;-69
2022/05/15 10:09:07;;;;;;;;;0.50;0.50;;;;;;;;5174817;28;9519;-69
2022/05/15 10:11:47;;;;;;;;;10.00;10.00;;;;;;;;5140398;28;8799;-70
2022/05/15 10:14:25;;;;;;;;;3.00;3.00;;;;;;;;5196643;28;8841;-70
2022/05/15 10:16:57;;;;;;;;;1.00;1.00;;;;;;;;5211236;28;8798;-70
2022/05/15 10:19:49;;;;;;;;;2.00;2.00;;;;;;;;5225319;28;8833;-70
2022/05/15 10:22:23;;;;;;;;;3.00;3.00;;;;;;;;5153286;28;8823;-70
2022/05/15 10:24:57;;;;;;;;;2.75;2.75;;;;;;;;5167127;28;8896;-71
2022/05/15 10:27:54;;;;;;;;;5.75;5.75;;;;;;;;5191430;28;8773;-70
2022/05/15 10:30:33;;;;;;;;;6.00;6.00;;;;;;;;5189731;28;8789;-69
2022/05/15 10:33:07;;;;;;;;;16.25;15.50;;;;;;;;5172069;28;8888;-70
2022/05/15 10:35:47;;;;;;;;;0.75;0.75;;;;;;;;5189341;28;8802;-69
2022/05/15 10:38:27;;;;;;;;;1.00;1.00;;;;;;;;5188977;28;8893;-69
2022/05/15 10:41:13;;;;;;;;;1.00;1.00;;;;;;;;5205318;28;8798;-69
2022/05/15 10:44:10;;;;;;;;;0.00;0.00;;;;;;;;5170947;28;8925;-69
2022/05/15 10:46:46;;;;;;;;;1.00;1.00;;;;;;;;5187824;28;8812;-69
2022/05/15 10:49:20;;;;;;;;;1.25;1.25;;;;;;;;5171118;28;8783;-69
2022/05/15 10:51:53;;;;;;;;;5.75;5.75;;;;;;;;5187303;28;8805;-71
2022/05/15 10:57:30;;;;;;;;;5.67;5.67;;;;;;;;5204619;28;9564;-70
2022/05/15 11:00:11;;;;;;;;;5.50;5.50;;;;;;;;5195285;28;8802;-68
2022/05/15 11:03:00;;;;;;;;;3.00;2.50;;;;;;;;5177326;28;8801;-68
2022/05/15 11:05:33;;;;;;;;;2.50;2.50;;;;;;;;5167163;28;8907;-68
2022/05/15 11:08:42;;;;;;;;;3.00;3.00;;;;;;;;5176977;28;8795;-69
2022/05/15 11:11:18;;;;;;;;;2.00;2.00;;;;;;;;5147880;28;8783;-69
2022/05/15 11:14:22;;;;;;;;;2.75;2.75;;;;;;;;5131439;28;8905;-70
2022/05/15 11:17:05;;;;;;;;;6.00;6.00;;;;;;;;5097708;28;8885;-70
2022/05/15 11:19:37;;;;;;;;;1.00;1.00;;;;;;;;5129031;28;8814;-70
2022/05/15 11:22:09;;;;;;;;;9.00;9.00;;;;;;;;5128366;28;8791;-70
2022/05/15 11:24:43;;;;;;;;;8.75;8.75;;;;;;;;5128677;28;8831;-70
2022/05/15 11:27:32;;;;;;;;;6.50;6.50;;;;;;;;5160884;28;8877;-72
2022/05/15 11:30:08;;;;;;;;;3.00;3.00;;;;;;;;5145201;28;8794;-70
2022/05/15 11:32:42;;;;;;;;;2.00;2.00;;;;;;;;5176451;28;8820;-70
2022/05/15 11:35:22;;;;;;;;;1.00;1.00;;;;;;;;5149140;28;8777;-69
2022/05/15 11:37:56;;;;;;;;;1.50;1.50;;;;;;;;5165294;28;9545;-70
2022/05/15 11:40:38;;;;;;;;;1.00;1.00;;;;;;;;5165338;28;8915;-69
2022/05/15 11:43:30;;;;;;;;;0.00;0.00;;;;;;;;5150487;28;9579;-70
2022/05/15 11:46:06;;;;;;;;;1.00;1.00;;;;;;;;5186187;28;8781;-70
2022/05/15 11:48:43;;;;;;;;;1.75;1.25;;;;;;;;5138253;28;8765;-69
2022/05/15 11:51:14;;;;;;;;;3.00;3.00;;;;;;;;5186936;28;8784;-69
2022/05/15 11:54:00;;;;;;;;;1.00;1.00;;;;;;;;5186703;28;8812;-70
2022/05/15 11:56:37;;;;;;;;;1.00;1.00;;;;;;;;5154168;28;8972;-70
2022/05/15 11:59:14;;;;;;;;;1.50;1.50;;;;;;;;5170518;28;8765;-69
2022/05/15 12:01:47;;;;;;;;;1.00;1.00;;;;;;;;5137950;28;8919;-69
2022/05/15 12:04:18;;;;;;;;;1.00;1.00;;;;;;;;5170064;28;8800;-69
2022/05/15 12:06:49;;;;;;;;;2.25;2.25;;;;;;;;5186579;28;8810;-69
2022/05/15 12:09:48;;;;;;;;;3.00;3.00;;;;;;;;5186305;28;8851;-69
2022/05/15 12:12:31;;;;;;;;;2.50;2.50;;;;;;;;5187591;28;11400;-69
2022/05/15 12:15:10;;;;;;;;;8.50;8.50;;;;;;;;5169940;28;8853;-70
2022/05/15 12:17:42;;;;;;;;;1.75;1.75;;;;;;;;5137676;28;8880;-70
2022/05/15 12:20:36;;;;;;;;;1.00;1.00;;;;;;;;5149535;28;9547;-70
2022/05/15 12:23:10;;;;;;;;;1.00;1.00;;;;;;;;5187279;28;8800;-70
2022/05/15 12:25:58;;;;;;;;;1.00;1.00;;;;;;;;5169612;28;8797;-70
2022/05/15 12:31:29;;;;;;;;;0.00;0.00;;;;;;;;5187344;28;8797;-70
2022/05/15 12:34:11;;;;;;;;;3.50;3.50;;;;;;;;5185804;28;8802;-69
2022/05/15 12:36:52;;;;;;;;;2.50;2.50;;;;;;;;5169815;28;8783;-70
2022/05/15 12:39:25;;;;;;;;;0.25;0.25;;;;;;;;5137448;28;8780;-69
2022/05/15 12:42:01;;;;;;;;;12.00;11.50;;;;;;;;5169550;28;8850;-70
2022/05/15 12:44:36;;;;;;;;;12.40;12.40;;;;;;;;5153063;28;8807;-70
2022/05/15 12:47:11;;;;;;;;;7.75;7.75;;;;;;;;5185862;28;8794;-70
2022/05/15 12:49:43;;;;;;;;;6.00;6.00;;;;;;;;5169684;28;8798;-70
2022/05/15 12:52:14;;;;;;;;;3.00;3.00;;;;;;;;5169497;28;8803;-70
2022/05/15 12:54:46;;;;;;;;;6.67;6.67;;;;;;;;5169025;28;8874;-70
2022/05/15 12:57:18;;;;;;;;;14.80;14.80;;;;;;;;5168808;28;8783;-70
2022/05/15 12:59:52;;;;;;;;;19.00;19.00;;;;;;;;5203736;28;8825;-72
2022/05/15 13:02:29;;;;;;;;;8.00;8.00;;;;;;;;5188593;28;8820;-70
2022/05/15 13:05:06;;;;;;;;;19.60;18.60;;;;;;;;5184417;28;8830;-70
2022/05/15 13:08:00;;;;;;;;;9.50;9.50;;;;;;;;5182015;28;8873;-77
2022/05/15 13:10:32;;;;;;;;;6.75;6.75;;;;;;;;5169311;28;8810;-69
2022/05/15 13:13:04;;;;;;;;;3.75;3.75;;;;;;;;5188999;28;8789;-70
2022/05/15 13:15:54;;;;;;;;;7.00;7.00;;;;;;;;5191197;28;8789;-70
2022/05/15 13:18:31;;;;;;;;;7.00;7.00;;;;;;;;5184745;28;8805;-70
2022/05/15 13:21:10;;;;;;;;;2.75;2.50;;;;;;;;5189453;28;8864;-71
2022/05/15 13:23:45;;;;;;;;;2.00;2.00;;;;;;;;5172673;28;8849;-70
2022/05/15 13:26:43;;;;;;;;;4.00;4.00;;;;;;;;5214186;28;8795;-71
2022/05/15 13:29:18;;;;;;;;;3.75;3.75;;;;;;;;5192952;28;8794;-71
2022/05/15 13:32:09;;;;;;;;;2.50;2.50;;;;;;;;5195329;28;8810;-71
2022/05/15 13:34:40;;;;;;;;;8.25;8.25;;;;;;;;5222436;28;8787;-70
2022/05/15 13:37:26;;;;;;;;;0.00;0.00;;;;;;;;5203691;28;8830;-72
2022/05/15 13:46:06;;;;;;;;;4.25;4.25;;;;;;;;5208630;28;8807;-70
2022/05/15 13:48:51;;;;;;;;;1.00;1.00;;;;;;;;5201720;28;8809;-70
2022/05/15 13:51:42;;;;;;;;;8.00;7.00;;;;;;;;5204621;28;8882;-69
2022/05/15 13:54:16;;;;;;;;;9.75;9.75;;;;;;;;5188164;28;8816;-69
2022/05/15 13:56:47;;;;;;;;;6.50;6.50;;;;;;;;5199859;28;8803;-69
2022/05/15 13:59:36;;;;;;;;;6.33;5.33;;;;;;;;5204836;28;8774;-69
2022/05/15 14:02:10;;;;;;;;;7.50;7.50;;;;;;;;5183236;28;11484;-70
2022/05/15 14:04:45;;;;;;;;;10.75;10.75;;;;;;;;5200391;28;8847;-69
2022/05/15 14:07:42;;;;;;;;;19.75;19.75;;;;;;;;5162963;28;8793;-70
2022/05/15 14:10:13;;;;;;;;;7.75;7.75;;;;;;;;5183640;28;8797;-69
2022/05/15 14:12:48;;;;;;;;;7.00;7.00;;;;;;;;5207155;28;8970;-70
2022/05/15 14:15:37;;;;;;;;;2.50;2.50;;;;;;;;5225479;28;9478;-70
2022/05/15 14:18:13;;;;;;;;;3.25;3.25;;;;;;;;5191900;28;8890;-69
2022/05/15 14:20:45;;;;;;;;;1.50;1.50;;;;;;;;5197054;28;8778;-68
2022/05/15 14:23:23;;;;;;;;;5.00;5.00;;;;;;;;5204869;28;8794;-71
2022/05/15 14:25:54;;;;;;;;;8.50;7.50;;;;;;;;5155532;28;8819;-70
2022/05/15 14:28:28;;;;;;;;;5.75;5.75;;;;;;;;5187332;28;8815;-71
2022/05/15 14:31:00;;;;;;;;;2.25;2.25;;;;;;;;5180092;28;8789;-69
2022/05/15 14:33:50;;;;;;;;;1.50;1.50;;;;;;;;5185110;28;8814;-70
2022/05/15 14:36:22;;;;;;;;;1.00;1.00;;;;;;;;5184737;28;8807;-69
2022/05/15 14:38:53;;;;;;;;;2.00;2.00;;;;;;;;5167601;28;8815;-69
2022/05/15 14:41:25;;;;;;;;;11.75;11.75;;;;;;;;5181586;28;9551;-69
2022/05/15 14:43:56;;;;;;;;;11.00;11.00;;;;;;;;5205079;28;8821;-68
2022/05/15 14:46:29;;;;;;;;;10.00;10.00;;;;;;;;5205301;28;9634;-69
2022/05/15 14:49:00;;;;;;;;;8.25;8.25;;;;;;;;5187648;28;8781;-69
2022/05/15 14:51:34;;;;;;;;;5.00;5.00;;;;;;;;5187201;28;8824;-69
2022/05/15 14:54:05;;;;;;;;;7.00;7.00;;;;;;;;5168121;28;8831;-69
2022/05/15 14:56:36;;;;;;;;;5.00;5.00;;;;;;;;5204827;28;8797;-70
2022/05/15 14:59:13;;;;;;;;;7.25;7.25;;;;;;;;5186889;28;8877;-70
2022/05/15 15:01:44;;;;;;;;;11.50;11.50;;;;;;;;5170922;28;8786;-70
2022/05/15 15:04:15;;;;;;;;;10.50;10.50;;;;;;;;5154236;28;8833;-71
2022/05/15 15:06:46;;;;;;;;;13.50;13.50;;;;;;;;5204667;28;8773;-70
2022/05/15 15:09:19;;;;;;;;;10.00;10.00;;;;;;;;5181872;28;8797;-69
2022/05/15 15:11:52;;;;;;;;;11.50;10.75;;;;;;;;5211221;28;8789;-69
2022/05/15 15:14:23;;;;;;;;;15.75;14.50;;;;;;;;5153434;28;9017;-70
2022/05/15 15:16:55;;;;;;;;;15.00;14.50;;;;;;;;5182342;28;8809;-69
2022/05/15 15:19:27;;;;;;;;;23.75;23.75;;;;;;;;5167955;28;8784;-69
2022/05/15 15:21:58;;;;;;;;;23.80;23.60;;;;;;;;5174460;28;8815;-69
2022/05/15 15:24:29;;;;;;;;;22.40;22.20;;;;;;;;5174581;28;8804;-70
2022/05/15 15:27:00;;;;;;;;;16.00;16.00;;;;;;;;5205128;28;8802;-69
2022/05/15 15:29:31;;;;;;;;;19.67;19.00;;;;;;;;5196649;28;8822;-70
2022/05/15 15:32:02;;;;;;;;;15.00;14.75;;;;;;;;5221793;28;10870;-70
2022/05/15 15:34:33;;;;;;;;;14.50;14.50;;;;;;;;5200695;28;8821;-69
2022/05/15 15:39:53;;;;;;;;;22.50;22.00;;;;;;;;5203155;28;10393;-69
2022/05/15 15:42:24;;;;;;;;;20.25;19.25;;;;;;;;5168021;28;9595;-69
2022/05/15 15:44:56;;;;;;;;;15.00;15.00;;;;;;;;5150179;28;8821;-68
2022/05/15 15:47:27;;;;;;;;;16.00;16.00;;;;;;;;5169632;28;11578;-69
2022/05/15 15:50:18;;;;;;;;;26.60;26.60;;;;;;;;5190196;28;8801;-69
2022/05/15 15:52:48;;;;;;;;;24.25;23.75;;;;;;;;5173698;28;8821;-69
2022/05/15 15:55:20;;;;;;;;;24.50;24.50;;;;;;;;5173395;28;8789;-69
2022/05/15 15:57:51;;;;;;;;;12.50;12.50;;;;;;;;5188412;28;9913;-70
2022/05/15 16:00:23;;;;;;;;;6.00;5.33;;;;;;;;5147652;28;8787;-71
2022/05/15 16:03:13;;;;;;;;;7.00;6.50;;;;;;;;5227750;28;8840;-70
2022/05/15 16:05:46;;;;;;;;;6.00;6.00;;;;;;;;5194152;28;8797;-69
2022/05/15 16:08:18;;;;;;;;;6.00;6.00;;;;;;;;5173716;28;8797;-70
2022/05/15 16:10:49;;;;;;;;;2.00;2.00;;;;;;;;5191567;28;8793;-70
2022/05/15 16:13:20;;;;;;;;;4.00;4.00;;;;;;;;5194415;28;8764;-71
2022/05/15 16:15:51;;;;;;;;;4.00;4.00;;;;;;;;5210631;28;8896;-70